sensor_id;sensor_type;location;lat;lon;timestamp;P1;durP1;ratioP1;P2;durP2;ratioP2
52396;SDS011;38322;53.108;6.308;2022-11-11T06:03:12;30.27;;;21.25;;
52396;SDS011;38322;53.108;6.308;2022-11-11T06:05:38;24.00;;;17.60;;
52396;SDS011;38322;53.108;6.308;2022-11-11T06:08:03;26.38;;;19.52;;
52396;SDS011;38322;53.108;6.308;2022-11-11T06:10:29;27.75;;;17.58;;
52396;SDS011;38322;53.108;6.308;2022-11-11T06:12:56;28.42;;;19.15;;
52396;SDS011;38322;53.108;6.308;2022-11-11T06:15:31;29.08;;;19.42;;
52396;SDS011;38322;53.108;6.308;2022-11-11T06:17:57;24.38;;;17.88;;
52396;SDS011;38322;53.108;6.308;2022-11-11T06:20:23;28.17;;;19.83;;
52396;SDS011;38322;53.108;6.308;2022-11-11T06:22:50;27.23;;;17.67;;
52396;SDS011;38322;53.108;6.308;2022-11-11T06:25:28;29.13;;;21.33;;
52396;SDS011;38322;53.108;6.308;2022-11-11T06:28:15;30.17;;;19.98;;
52396;SDS011;38322;53.108;6.308;2022-11-11T06:30:42;24.65;;;18.95;;
52396;SDS011;38322;53.108;6.308;2022-11-11T06:33:08;29.65;;;19.20;;
52396;SDS011;38322;53.108;6.308;2022-11-11T06:35:34;28.23;;;21.05;;
52396;SDS011;38322;53.108;6.308;2022-11-11T06:38:01;25.35;;;18.98;;
52396;SDS011;38322;53.108;6.308;2022-11-11T06:40:27;28.70;;;18.52;;
52396;SDS011;38322;53.108;6.308;2022-11-11T06:42:55;33.53;;;20.75;;
52396;SDS011;38322;53.108;6.308;2022-11-11T06:45:22;28.73;;;20.80;;
52396;SDS011;38322;53.108;6.308;2022-11-11T06:47:49;29.67;;;20.42;;
52396;SDS011;38322;53.108;6.308;2022-11-11T06:50:16;26.67;;;20.10;;
52396;SDS011;38322;53.108;6.308;2022-11-11T06:52:42;32.03;;;20.50;;
52396;SDS011;38322;53.108;6.308;2022-11-11T06:55:08;28.20;;;20.77;;
52396;SDS011;38322;53.108;6.308;2022-11-11T06:57:35;35.47;;;21.90;;
52396;SDS011;38322;53.108;6.308;2022-11-11T07:00:02;26.33;;;20.17;;
52396;SDS011;38322;53.108;6.308;2022-11-11T07:02:29;35.88;;;23.60;;
52396;SDS011;38322;53.108;6.308;2022-11-11T07:04:55;32.65;;;22.25;;
52396;SDS011;38322;53.108;6.308;2022-11-11T07:07:21;36.25;;;21.83;;
52396;SDS011;38322;53.108;6.308;2022-11-11T07:09:47;30.05;;;21.58;;
52396;SDS011;38322;53.108;6.308;2022-11-11T07:12:13;30.95;;;22.80;;
52396;SDS011;38322;53.108;6.308;2022-11-11T07:14:40;31.52;;;23.00;;
52396;SDS011;38322;53.108;6.308;2022-11-11T07:17:05;30.58;;;21.10;;
52396;SDS011;38322;53.108;6.308;2022-11-11T07:19:31;36.35;;;22.83;;
52396;SDS011;38322;53.108;6.308;2022-11-11T07:21:57;31.17;;;22.52;;
52396;SDS011;38322;53.108;6.308;2022-11-11T07:24:23;30.23;;;22.02;;
52396;SDS011;38322;53.108;6.308;2022-11-11T07:26:49;29.05;;;21.80;;
52396;SDS011;38322;53.108;6.308;2022-11-11T07:29:15;25.60;;;21.65;;
52396;SDS011;38322;53.108;6.308;2022-11-11T07:31:41;36.17;;;23.88;;
52396;SDS011;38322;53.108;6.308;2022-11-11T07:34:06;27.67;;;21.25;;
52396;SDS011;38322;53.108;6.308;2022-11-11T07:36:32;31.75;;;21.67;;
52396;SDS011;38322;53.108;6.308;2022-11-11T07:38:58;35.00;;;22.42;;
52396;SDS011;38322;53.108;6.308;2022-11-11T07:41:24;29.13;;;20.42;;
52396;SDS011;38322;53.108;6.308;2022-11-11T07:43:50;30.70;;;19.83;;
52396;SDS011;38322;53.108;6.308;2022-11-11T07:46:17;30.80;;;20.25;;
52396;SDS011;38322;53.108;6.308;2022-11-11T07:48:43;34.40;;;21.35;;
52396;SDS011;38322;53.108;6.308;2022-11-11T07:51:09;30.58;;;20.30;;
52396;SDS011;38322;53.108;6.308;2022-11-11T07:53:35;33.35;;;21.30;;
52396;SDS011;38322;53.108;6.308;2022-11-11T07:56:00;32.85;;;21.08;;
52396;SDS011;38322;53.108;6.308;2022-11-11T07:58:26;36.65;;;22.80;;
52396;SDS011;38322;53.108;6.308;2022-11-11T08:00:52;30.63;;;20.63;;
52396;SDS011;38322;53.108;6.308;2022-11-11T08:03:18;31.83;;;20.63;;
52396;SDS011;38322;53.108;6.308;2022-11-11T08:05:44;27.33;;;20.02;;
52396;SDS011;38322;53.108;6.308;2022-11-11T08:08:10;32.20;;;19.23;;
52396;SDS011;38322;53.108;6.308;2022-11-11T08:10:36;27.08;;;20.38;;
52396;SDS011;38322;53.108;6.308;2022-11-11T08:13:02;29.35;;;21.58;;
52396;SDS011;38322;53.108;6.308;2022-11-11T08:15:47;31.77;;;21.35;;
52396;SDS011;38322;53.108;6.308;2022-11-11T08:18:13;29.83;;;19.92;;
52396;SDS011;38322;53.108;6.308;2022-11-11T08:20:39;30.85;;;19.75;;
52396;SDS011;38322;53.108;6.308;2022-11-11T08:23:04;32.30;;;20.55;;
52396;SDS011;38322;53.108;6.308;2022-11-11T08:25:34;26.33;;;20.05;;
52396;SDS011;38322;53.108;6.308;2022-11-11T08:28:02;26.95;;;19.65;;
52396;SDS011;38322;53.108;6.308;2022-11-11T08:30:29;26.10;;;17.83;;
52396;SDS011;38322;53.108;6.308;2022-11-11T08:33:01;29.90;;;19.98;;
52396;SDS011;38322;53.108;6.308;2022-11-11T08:35:29;30.40;;;20.88;;
52396;SDS011;38322;53.108;6.308;2022-11-11T08:38:00;28.98;;;21.00;;
52396;SDS011;38322;53.108;6.308;2022-11-11T08:40:26;29.20;;;20.27;;
52396;SDS011;38322;53.108;6.308;2022-11-11T08:42:58;29.90;;;20.13;;
52396;SDS011;38322;53.108;6.308;2022-11-11T08:45:24;27.52;;;20.70;;
52396;SDS011;38322;53.108;6.308;2022-11-11T08:47:51;29.02;;;20.02;;
52396;SDS011;38322;53.108;6.308;2022-11-11T08:50:17;26.08;;;20.05;;
52396;SDS011;38322;53.108;6.308;2022-11-11T08:52:49;28.67;;;19.45;;
52396;SDS011;38322;53.108;6.308;2022-11-11T08:55:16;28.60;;;19.95;;
52396;SDS011;38322;53.108;6.308;2022-11-11T08:57:43;27.50;;;19.95;;
52396;SDS011;38322;53.108;6.308;2022-11-11T09:00:11;28.25;;;20.23;;
52396;SDS011;38322;53.108;6.308;2022-11-11T09:02:38;24.92;;;19.83;;
52396;SDS011;38322;53.108;6.308;2022-11-11T09:05:04;28.55;;;18.50;;
52396;SDS011;38322;53.108;6.308;2022-11-11T09:07:31;28.30;;;18.35;;
52396;SDS011;38322;53.108;6.308;2022-11-11T09:09:57;29.98;;;19.48;;
52396;SDS011;38322;53.108;6.308;2022-11-11T09:12:24;22.83;;;18.15;;
52396;SDS011;38322;53.108;6.308;2022-11-11T09:14:49;32.85;;;18.90;;
52396;SDS011;38322;53.108;6.308;2022-11-11T09:17:15;31.23;;;20.40;;
52396;SDS011;38322;53.108;6.308;2022-11-11T09:19:41;30.05;;;18.50;;
52396;SDS011;38322;53.108;6.308;2022-11-11T09:22:07;28.95;;;19.05;;
52396;SDS011;38322;53.108;6.308;2022-11-11T09:24:33;24.73;;;18.00;;
52396;SDS011;38322;53.108;6.308;2022-11-11T09:26:59;27.08;;;19.38;;
52396;SDS011;38322;53.108;6.308;2022-11-11T09:29:25;24.45;;;18.10;;
52396;SDS011;38322;53.108;6.308;2022-11-11T09:31:50;26.35;;;18.98;;
52396;SDS011;38322;53.108;6.308;2022-11-11T09:34:16;27.05;;;18.77;;
52396;SDS011;38322;53.108;6.308;2022-11-11T09:36:42;29.25;;;18.83;;
52396;SDS011;38322;53.108;6.308;2022-11-11T09:39:08;26.30;;;18.55;;
52396;SDS011;38322;53.108;6.308;2022-11-11T09:41:37;27.90;;;19.90;;
52396;SDS011;38322;53.108;6.308;2022-11-11T09:47:01;30.15;;;19.33;;
52396;SDS011;38322;53.108;6.308;2022-11-11T09:49:37;29.95;;;19.20;;
52396;SDS011;38322;53.108;6.308;2022-11-11T09:52:21;25.45;;;17.85;;
52396;SDS011;38322;53.108;6.308;2022-11-11T09:54:53;26.65;;;20.17;;
52396;SDS011;38322;53.108;6.308;2022-11-11T09:57:36;27.23;;;19.35;;
52396;SDS011;38322;53.108;6.308;2022-11-11T10:00:06;26.92;;;18.52;;
52396;SDS011;38322;53.108;6.308;2022-11-11T10:05:21;27.63;;;18.75;;
52396;SDS011;38322;53.108;6.308;2022-11-11T10:07:53;24.17;;;18.10;;
52396;SDS011;38322;53.108;6.308;2022-11-11T10:13:15;27.52;;;18.95;;
52396;SDS011;38322;53.108;6.308;2022-11-11T10:15:48;21.17;;;16.95;;
52396;SDS011;38322;53.108;6.308;2022-11-11T10:18:33;21.33;;;16.35;;
52396;SDS011;38322;53.108;6.308;2022-11-11T10:21:18;22.92;;;17.92;;
52396;SDS011;38322;53.108;6.308;2022-11-11T10:23:51;26.45;;;18.25;;
52396;SDS011;38322;53.108;6.308;2022-11-11T10:26:36;21.67;;;17.92;;
52396;SDS011;38322;53.108;6.308;2022-11-11T10:29:11;22.77;;;17.38;;
52396;SDS011;38322;53.108;6.308;2022-11-11T10:31:40;21.55;;;16.45;;
52396;SDS011;38322;53.108;6.308;2022-11-11T10:34:09;23.17;;;16.52;;
52396;SDS011;38322;53.108;6.308;2022-11-11T10:36:43;25.52;;;19.05;;
52396;SDS011;38322;53.108;6.308;2022-11-11T10:39:17;22.73;;;16.55;;
52396;SDS011;38322;53.108;6.308;2022-11-11T10:41:48;21.38;;;16.65;;
52396;SDS011;38322;53.108;6.308;2022-11-11T10:44:21;23.88;;;19.67;;
52396;SDS011;38322;53.108;6.308;2022-11-11T10:49:30;23.38;;;17.70;;
52396;SDS011;38322;53.108;6.308;2022-11-11T10:52:05;21.42;;;15.13;;
52396;SDS011;38322;53.108;6.308;2022-11-11T10:54:39;24.40;;;16.70;;
52396;SDS011;38322;53.108;6.308;2022-11-11T10:57:12;21.90;;;16.85;;
52396;SDS011;38322;53.108;6.308;2022-11-11T10:59:48;20.33;;;15.00;;
52396;SDS011;38322;53.108;6.308;2022-11-11T11:02:29;26.25;;;18.02;;
52396;SDS011;38322;53.108;6.308;2022-11-11T11:07:40;20.65;;;17.38;;
52396;SDS011;38322;53.108;6.308;2022-11-11T11:10:12;23.85;;;15.98;;
52396;SDS011;38322;53.108;6.308;2022-11-11T11:12:57;23.88;;;17.55;;
52396;SDS011;38322;53.108;6.308;2022-11-11T11:18:08;22.55;;;16.63;;
52396;SDS011;38322;53.108;6.308;2022-11-11T11:20:37;23.45;;;16.48;;
52396;SDS011;38322;53.108;6.308;2022-11-11T11:23:33;19.90;;;16.05;;
52396;SDS011;38322;53.108;6.308;2022-11-11T11:26:07;22.02;;;16.55;;
52396;SDS011;38322;53.108;6.308;2022-11-11T11:28:51;19.15;;;14.07;;
52396;SDS011;38322;53.108;6.308;2022-11-11T11:31:20;24.60;;;16.02;;
52396;SDS011;38322;53.108;6.308;2022-11-11T11:34:01;22.75;;;15.73;;
52396;SDS011;38322;53.108;6.308;2022-11-11T11:36:28;24.42;;;15.93;;
52396;SDS011;38322;53.108;6.308;2022-11-11T11:38:54;21.95;;;15.52;;
52396;SDS011;38322;53.108;6.308;2022-11-11T11:41:41;22.10;;;16.10;;
52396;SDS011;38322;53.108;6.308;2022-11-11T11:44:24;16.98;;;15.00;;
52396;SDS011;38322;53.108;6.308;2022-11-11T11:47:01;19.83;;;14.85;;
52396;SDS011;38322;53.108;6.308;2022-11-11T11:52:37;19.42;;;14.48;;
52396;SDS011;38322;53.108;6.308;2022-11-11T11:55:17;17.83;;;14.43;;
52396;SDS011;38322;53.108;6.308;2022-11-11T11:58:08;19.92;;;14.40;;
52396;SDS011;38322;53.108;6.308;2022-11-11T12:03:34;20.70;;;15.15;;
52396;SDS011;38322;53.108;6.308;2022-11-11T12:06:28;17.60;;;14.10;;
52396;SDS011;38322;53.108;6.308;2022-11-11T12:11:51;15.52;;;12.15;;
52396;SDS011;38322;53.108;6.308;2022-11-11T12:17:24;19.08;;;13.25;;
52396;SDS011;38322;53.108;6.308;2022-11-11T12:20:13;20.17;;;14.13;;
52396;SDS011;38322;53.108;6.308;2022-11-11T12:22:51;19.52;;;14.07;;
52396;SDS011;38322;53.108;6.308;2022-11-11T12:25:39;18.25;;;14.60;;
52396;SDS011;38322;53.108;6.308;2022-11-11T12:34:09;19.38;;;13.93;;
52396;SDS011;38322;53.108;6.308;2022-11-11T12:37:02;19.08;;;13.50;;
52396;SDS011;38322;53.108;6.308;2022-11-11T12:39:49;20.98;;;15.05;;
52396;SDS011;38322;53.108;6.308;2022-11-11T12:45:19;20.65;;;15.40;;
52396;SDS011;38322;53.108;6.308;2022-11-11T12:47:53;20.65;;;15.88;;
52396;SDS011;38322;53.108;6.308;2022-11-11T12:50:35;23.08;;;13.93;;
52396;SDS011;38322;53.108;6.308;2022-11-11T13:01:19;18.35;;;15.07;;
52396;SDS011;38322;53.108;6.308;2022-11-11T13:03:59;20.67;;;15.48;;
52396;SDS011;38322;53.108;6.308;2022-11-11T13:09:36;24.20;;;14.85;;
52396;SDS011;38322;53.108;6.308;2022-11-11T13:12:12;19.45;;;15.05;;
52396;SDS011;38322;53.108;6.308;2022-11-11T13:14:47;21.92;;;14.13;;
52396;SDS011;38322;53.108;6.308;2022-11-11T13:17:19;24.15;;;14.88;;
52396;SDS011;38322;53.108;6.308;2022-11-11T13:19:49;19.25;;;14.95;;
52396;SDS011;38322;53.108;6.308;2022-11-11T13:22:24;26.27;;;16.10;;
52396;SDS011;38322;53.108;6.308;2022-11-11T13:24:52;25.05;;;15.20;;
52396;SDS011;38322;53.108;6.308;2022-11-11T13:27:34;28.42;;;17.83;;
52396;SDS011;38322;53.108;6.308;2022-11-11T13:32:51;27.52;;;17.92;;
52396;SDS011;38322;53.108;6.308;2022-11-11T13:38:01;24.33;;;16.77;;
52396;SDS011;38322;53.108;6.308;2022-11-11T13:40:33;30.17;;;16.77;;
52396;SDS011;38322;53.108;6.308;2022-11-11T13:43:02;25.50;;;15.23;;
52396;SDS011;38322;53.108;6.308;2022-11-11T13:45:37;18.95;;;14.30;;
52396;SDS011;38322;53.108;6.308;2022-11-11T13:48:06;22.15;;;16.00;;
52396;SDS011;38322;53.108;6.308;2022-11-11T13:50:43;19.92;;;14.80;;
52396;SDS011;38322;53.108;6.308;2022-11-11T13:53:27;20.95;;;15.70;;
52396;SDS011;38322;53.108;6.308;2022-11-11T13:56:00;23.33;;;15.10;;
52396;SDS011;38322;53.108;6.308;2022-11-11T13:58:29;24.42;;;14.43;;
52396;SDS011;38322;53.108;6.308;2022-11-11T14:00:58;20.98;;;14.55;;
52396;SDS011;38322;53.108;6.308;2022-11-11T14:03:27;22.50;;;16.15;;
52396;SDS011;38322;53.108;6.308;2022-11-11T14:13:50;20.17;;;14.85;;
52396;SDS011;38322;53.108;6.308;2022-11-11T14:21:52;21.00;;;15.68;;
52396;SDS011;38322;53.108;6.308;2022-11-11T14:27:00;23.77;;;17.80;;
52396;SDS011;38322;53.108;6.308;2022-11-11T14:29:29;24.50;;;16.70;;
52396;SDS011;38322;53.108;6.308;2022-11-11T14:32:03;23.15;;;16.73;;
52396;SDS011;38322;53.108;6.308;2022-11-11T14:34:45;22.45;;;17.13;;
52396;SDS011;38322;53.108;6.308;2022-11-11T14:40:02;22.23;;;17.00;;
52396;SDS011;38322;53.108;6.308;2022-11-11T14:45:00;21.65;;;15.43;;
52396;SDS011;38322;53.108;6.308;2022-11-11T14:47:31;20.58;;;15.82;;
52396;SDS011;38322;53.108;6.308;2022-11-11T14:49:58;21.92;;;15.52;;
52396;SDS011;38322;53.108;6.308;2022-11-11T14:54:58;22.15;;;16.30;;
52396;SDS011;38322;53.108;6.308;2022-11-11T14:57:33;22.42;;;15.82;;
52396;SDS011;38322;53.108;6.308;2022-11-11T15:00:04;22.05;;;14.60;;
52396;SDS011;38322;53.108;6.308;2022-11-11T15:02:39;23.13;;;17.00;;
52396;SDS011;38322;53.108;6.308;2022-11-11T15:05:20;20.58;;;14.95;;
52396;SDS011;38322;53.108;6.308;2022-11-11T15:08:14;23.73;;;16.70;;
52396;SDS011;38322;53.108;6.308;2022-11-11T15:11:00;21.83;;;16.92;;
52396;SDS011;38322;53.108;6.308;2022-11-11T15:16:36;25.17;;;16.48;;
52396;SDS011;38322;53.108;6.308;2022-11-11T15:24:41;18.00;;;15.02;;
52396;SDS011;38322;53.108;6.308;2022-11-11T15:29:55;19.45;;;15.23;;
52396;SDS011;38322;53.108;6.308;2022-11-11T15:35:12;24.38;;;17.58;;
52396;SDS011;38322;53.108;6.308;2022-11-11T15:37:45;23.30;;;16.30;;
52396;SDS011;38322;53.108;6.308;2022-11-11T15:40:21;21.00;;;15.80;;
52396;SDS011;38322;53.108;6.308;2022-11-11T15:42:49;20.88;;;15.35;;
52396;SDS011;38322;53.108;6.308;2022-11-11T15:47:42;21.73;;;15.95;;
52396;SDS011;38322;53.108;6.308;2022-11-11T15:50:16;22.02;;;15.18;;
52396;SDS011;38322;53.108;6.308;2022-11-11T15:52:55;23.52;;;17.65;;
52396;SDS011;38322;53.108;6.308;2022-11-11T15:55:24;24.08;;;17.30;;
52396;SDS011;38322;53.108;6.308;2022-11-11T15:57:54;24.85;;;17.50;;
52396;SDS011;38322;53.108;6.308;2022-11-11T16:00:31;23.13;;;15.98;;
52396;SDS011;38322;53.108;6.308;2022-11-11T16:02:57;21.63;;;16.08;;
52396;SDS011;38322;53.108;6.308;2022-11-11T16:05:24;21.73;;;16.27;;
52396;SDS011;38322;53.108;6.308;2022-11-11T16:07:53;23.42;;;16.27;;
52396;SDS011;38322;53.108;6.308;2022-11-11T16:10:26;23.15;;;16.65;;
52396;SDS011;38322;53.108;6.308;2022-11-11T16:12:56;19.98;;;16.73;;
52396;SDS011;38322;53.108;6.308;2022-11-11T16:15:33;20.27;;;16.35;;
52396;SDS011;38322;53.108;6.308;2022-11-11T16:18:21;23.05;;;15.43;;
52396;SDS011;38322;53.108;6.308;2022-11-11T16:23:40;24.25;;;17.40;;
52396;SDS011;38322;53.108;6.308;2022-11-11T16:26:07;20.85;;;16.15;;
52396;SDS011;38322;53.108;6.308;2022-11-11T16:28:39;25.33;;;18.23;;
52396;SDS011;38322;53.108;6.308;2022-11-11T16:31:39;26.98;;;17.45;;
52396;SDS011;38322;53.108;6.308;2022-11-11T16:34:22;30.33;;;17.42;;
52396;SDS011;38322;53.108;6.308;2022-11-11T16:37:01;32.38;;;22.02;;
52396;SDS011;38322;53.108;6.308;2022-11-11T16:39:28;28.77;;;19.65;;
52396;SDS011;38322;53.108;6.308;2022-11-11T16:41:55;25.38;;;17.30;;
52396;SDS011;38322;53.108;6.308;2022-11-11T16:47:05;25.63;;;19.60;;
52396;SDS011;38322;53.108;6.308;2022-11-11T16:50:00;23.13;;;18.23;;
52396;SDS011;38322;53.108;6.308;2022-11-11T16:52:49;25.45;;;19.13;;
52396;SDS011;38322;53.108;6.308;2022-11-11T16:55:17;28.17;;;19.10;;
52396;SDS011;38322;53.108;6.308;2022-11-11T16:57:46;27.70;;;19.67;;
52396;SDS011;38322;53.108;6.308;2022-11-11T17:00:14;23.98;;;18.20;;
52396;SDS011;38322;53.108;6.308;2022-11-11T17:02:43;28.10;;;19.23;;
52396;SDS011;38322;53.108;6.308;2022-11-11T17:05:09;27.42;;;18.88;;
52396;SDS011;38322;53.108;6.308;2022-11-11T17:07:36;26.27;;;18.98;;
52396;SDS011;38322;53.108;6.308;2022-11-11T17:10:10;27.35;;;21.20;;
52396;SDS011;38322;53.108;6.308;2022-11-11T17:12:38;29.08;;;20.40;;
52396;SDS011;38322;53.108;6.308;2022-11-11T17:15:05;29.23;;;19.50;;
52396;SDS011;38322;53.108;6.308;2022-11-11T17:17:33;26.70;;;19.25;;
52396;SDS011;38322;53.108;6.308;2022-11-11T17:20:01;27.90;;;19.40;;
52396;SDS011;38322;53.108;6.308;2022-11-11T17:22:30;27.88;;;20.67;;
52396;SDS011;38322;53.108;6.308;2022-11-11T17:24:57;31.38;;;20.52;;
52396;SDS011;38322;53.108;6.308;2022-11-11T17:27:22;28.05;;;21.27;;
52396;SDS011;38322;53.108;6.308;2022-11-11T17:29:48;29.52;;;21.05;;
52396;SDS011;38322;53.108;6.308;2022-11-11T17:32:14;28.42;;;20.45;;
52396;SDS011;38322;53.108;6.308;2022-11-11T17:34:40;24.33;;;18.42;;
52396;SDS011;38322;53.108;6.308;2022-11-11T17:37:06;26.95;;;19.58;;
52396;SDS011;38322;53.108;6.308;2022-11-11T17:39:32;32.20;;;21.23;;
52396;SDS011;38322;53.108;6.308;2022-11-11T17:41:57;30.65;;;21.65;;
52396;SDS011;38322;53.108;6.308;2022-11-11T17:44:23;29.05;;;20.85;;
52396;SDS011;38322;53.108;6.308;2022-11-11T17:46:49;29.63;;;20.15;;
52396;SDS011;38322;53.108;6.308;2022-11-11T17:49:15;27.90;;;20.40;;
52396;SDS011;38322;53.108;6.308;2022-11-11T17:51:41;29.83;;;21.20;;
52396;SDS011;38322;53.108;6.308;2022-11-11T17:54:07;27.63;;;20.70;;
52396;SDS011;38322;53.108;6.308;2022-11-11T17:56:34;26.15;;;18.98;;
52396;SDS011;38322;53.108;6.308;2022-11-11T17:59:00;29.80;;;21.25;;
52396;SDS011;38322;53.108;6.308;2022-11-11T18:01:26;23.20;;;18.27;;
52396;SDS011;38322;53.108;6.308;2022-11-11T18:03:54;26.50;;;18.23;;
52396;SDS011;38322;53.108;6.308;2022-11-11T18:06:21;30.33;;;19.33;;
52396;SDS011;38322;53.108;6.308;2022-11-11T18:08:46;26.80;;;19.15;;
52396;SDS011;38322;53.108;6.308;2022-11-11T18:11:12;26.85;;;17.40;;
52396;SDS011;38322;53.108;6.308;2022-11-11T18:13:38;23.20;;;18.80;;
52396;SDS011;38322;53.108;6.308;2022-11-11T18:16:04;24.05;;;18.15;;
52396;SDS011;38322;53.108;6.308;2022-11-11T18:18:30;18.23;;;14.30;;
52396;SDS011;38322;53.108;6.308;2022-11-11T18:21:03;23.23;;;14.82;;
52396;SDS011;38322;53.108;6.308;2022-11-11T18:23:31;23.45;;;16.77;;
52396;SDS011;38322;53.108;6.308;2022-11-11T18:25:58;19.63;;;13.57;;
52396;SDS011;38322;53.108;6.308;2022-11-11T18:28:28;22.90;;;16.05;;
52396;SDS011;38322;53.108;6.308;2022-11-11T18:33:29;18.50;;;13.73;;
52396;SDS011;38322;53.108;6.308;2022-11-11T18:36:00;17.10;;;13.10;;
52396;SDS011;38322;53.108;6.308;2022-11-11T18:38:28;19.50;;;13.13;;
52396;SDS011;38322;53.108;6.308;2022-11-11T18:41:08;19.75;;;13.80;;
52396;SDS011;38322;53.108;6.308;2022-11-11T18:43:36;22.42;;;13.05;;
52396;SDS011;38322;53.108;6.308;2022-11-11T18:46:05;19.05;;;13.90;;
52396;SDS011;38322;53.108;6.308;2022-11-11T18:48:35;20.50;;;12.80;;
52396;SDS011;38322;53.108;6.308;2022-11-11T18:51:01;21.02;;;13.30;;
52396;SDS011;38322;53.108;6.308;2022-11-11T18:53:28;18.75;;;12.15;;
52396;SDS011;38322;53.108;6.308;2022-11-11T18:55:55;18.95;;;13.02;;
52396;SDS011;38322;53.108;6.308;2022-11-11T18:58:33;19.60;;;13.27;;
52396;SDS011;38322;53.108;6.308;2022-11-11T19:01:02;20.55;;;12.68;;
52396;SDS011;38322;53.108;6.308;2022-11-11T19:03:29;19.73;;;14.63;;
52396;SDS011;38322;53.108;6.308;2022-11-11T19:06:00;18.60;;;13.27;;
52396;SDS011;38322;53.108;6.308;2022-11-11T19:08:27;20.02;;;13.80;;
52396;SDS011;38322;53.108;6.308;2022-11-11T19:10:55;21.58;;;14.43;;
52396;SDS011;38322;53.108;6.308;2022-11-11T19:13:21;17.60;;;11.88;;
52396;SDS011;38322;53.108;6.308;2022-11-11T19:15:48;21.27;;;13.15;;
52396;SDS011;38322;53.108;6.308;2022-11-11T19:18:14;22.30;;;12.75;;
52396;SDS011;38322;53.108;6.308;2022-11-11T19:20:40;19.05;;;13.00;;
52396;SDS011;38322;53.108;6.308;2022-11-11T19:23:06;15.95;;;12.85;;
52396;SDS011;38322;53.108;6.308;2022-11-11T19:25:32;17.38;;;12.68;;
52396;SDS011;38322;53.108;6.308;2022-11-11T19:27:58;18.80;;;12.60;;
52396;SDS011;38322;53.108;6.308;2022-11-11T19:30:24;22.70;;;12.85;;
52396;SDS011;38322;53.108;6.308;2022-11-11T19:32:50;21.88;;;13.75;;
52396;SDS011;38322;53.108;6.308;2022-11-11T19:35:15;16.85;;;12.50;;
52396;SDS011;38322;53.108;6.308;2022-11-11T19:37:41;18.48;;;12.70;;
52396;SDS011;38322;53.108;6.308;2022-11-11T19:40:09;20.05;;;12.63;;
52396;SDS011;38322;53.108;6.308;2022-11-11T19:42:35;24.10;;;13.63;;
52396;SDS011;38322;53.108;6.308;2022-11-11T19:45:01;17.98;;;13.02;;
52396;SDS011;38322;53.108;6.308;2022-11-11T19:47:28;19.85;;;12.82;;
52396;SDS011;38322;53.108;6.308;2022-11-11T19:49:54;20.23;;;11.73;;
52396;SDS011;38322;53.108;6.308;2022-11-11T19:52:21;17.35;;;13.13;;
52396;SDS011;38322;53.108;6.308;2022-11-11T19:54:47;18.67;;;13.32;;
52396;SDS011;38322;53.108;6.308;2022-11-11T19:57:13;17.40;;;12.52;;
52396;SDS011;38322;53.108;6.308;2022-11-11T19:59:38;17.75;;;12.70;;
52396;SDS011;38322;53.108;6.308;2022-11-11T20:02:04;19.15;;;11.45;;
52396;SDS011;38322;53.108;6.308;2022-11-11T20:04:31;20.10;;;11.32;;
52396;SDS011;38322;53.108;6.308;2022-11-11T20:06:57;19.65;;;12.95;;
52396;SDS011;38322;53.108;6.308;2022-11-11T20:09:23;21.63;;;13.23;;
52396;SDS011;38322;53.108;6.308;2022-11-11T20:11:49;18.30;;;11.23;;
52396;SDS011;38322;53.108;6.308;2022-11-11T20:14:14;21.65;;;12.98;;
52396;SDS011;38322;53.108;6.308;2022-11-11T20:16:40;20.75;;;11.50;;
52396;SDS011;38322;53.108;6.308;2022-11-11T20:19:06;18.70;;;11.40;;
52396;SDS011;38322;53.108;6.308;2022-11-11T20:21:34;16.45;;;11.52;;
52396;SDS011;38322;53.108;6.308;2022-11-11T20:24:00;17.63;;;11.07;;
52396;SDS011;38322;53.108;6.308;2022-11-11T20:26:27;22.70;;;11.80;;
52396;SDS011;38322;53.108;6.308;2022-11-11T20:28:54;20.63;;;12.18;;
52396;SDS011;38322;53.108;6.308;2022-11-11T20:31:21;15.52;;;10.38;;
52396;SDS011;38322;53.108;6.308;2022-11-11T20:33:49;17.38;;;12.90;;
52396;SDS011;38322;53.108;6.308;2022-11-11T20:36:15;14.48;;;10.05;;
52396;SDS011;38322;53.108;6.308;2022-11-11T20:38:41;18.05;;;10.27;;
52396;SDS011;38322;53.108;6.308;2022-11-11T20:41:09;15.27;;;11.00;;
52396;SDS011;38322;53.108;6.308;2022-11-11T20:43:37;15.00;;;10.75;;
52396;SDS011;38322;53.108;6.308;2022-11-11T20:46:03;14.93;;;11.07;;
52396;SDS011;38322;53.108;6.308;2022-11-11T20:48:31;14.73;;;9.88;;
52396;SDS011;38322;53.108;6.308;2022-11-11T20:51:04;15.50;;;10.05;;
52396;SDS011;38322;53.108;6.308;2022-11-11T20:53:31;13.98;;;9.88;;
52396;SDS011;38322;53.108;6.308;2022-11-11T20:55:58;16.25;;;9.88;;
52396;SDS011;38322;53.108;6.308;2022-11-11T20:58:25;14.05;;;9.88;;
